Back to Top

Language: 

My Weather Underground Personal Weather Station Historical Data with Graphs...

Delerius Weather Station Historical Data
Daily Summary for January 29, 2017 Units:  English    Metric   Both
« Previous Day
Next Day »
Daily Weekly Monthly Yearly Custom
  High: Low: Average:
Temperature: 42.7 °F 33.0 °F 38.1 °F
Dew Point: 39.4 °F 31.3 °F 36.1 °F
Humidity: 98 % 81 % 93 %
Wind Speed: 7.0 mph 0.0 mph 2.1 mph
Wind Gust: -999.0 mph - -
Wind:- - SW
Pressure: 29.86 in 29.74 in -
Precipitation: 0.02 in    
Historical Graphs
 
 
Tabular Data for January 29, 2017
Time Temperature Dew Point Pressure Wind Wind Speed Wind Gust Humidity Rainfall Rate (Hourly) solar Conditions
00:01 37.1 °F 34.7 °F 29.81 in SSW 3.0 mph -999.0 mph 91 % 0.00 in 0 W/m2
00:06 37.1 °F 34.7 °F 29.81 in SSW 3.0 mph -999.0 mph 91 % 0.00 in 0 W/m2
00:11 37.1 °F 34.7 °F 29.81 in SSW 3.0 mph -999.0 mph 91 % 0.00 in 0 W/m2
00:16 37.1 °F 34.7 °F 29.81 in SSW 3.0 mph -999.0 mph 91 % 0.00 in 0 W/m2
00:21 37.1 °F 34.7 °F 29.81 in SSW 3.0 mph -999.0 mph 91 % 0.00 in 0 W/m2
00:26 37.2 °F 34.8 °F 29.81 in SSW 2.0 mph -999.0 mph 91 % 0.00 in 0 W/m2
00:31 37.2 °F 34.8 °F 29.81 in SSW 2.0 mph -999.0 mph 91 % 0.00 in 0 W/m2
00:36 37.2 °F 34.8 °F 29.81 in SSW 2.0 mph -999.0 mph 91 % 0.00 in 0 W/m2
00:41 37.2 °F 34.8 °F 29.81 in SSW 1.0 mph -999.0 mph 91 % 0.00 in 0 W/m2
00:46 37.2 °F 34.8 °F 29.81 in SSW 1.0 mph -999.0 mph 91 % 0.00 in 0 W/m2
00:51 37.2 °F 34.8 °F 29.81 in SSW 1.0 mph -999.0 mph 91 % 0.00 in 0 W/m2
00:56 36.8 °F 34.4 °F 29.80 in West 1.0 mph -999.0 mph 91 % 0.00 in 0 W/m2
01:01 36.8 °F 34.4 °F 29.80 in West 1.0 mph -999.0 mph 91 % 0.00 in 0 W/m2
01:06 36.8 °F 34.4 °F 29.80 in West 1.0 mph -999.0 mph 91 % 0.00 in 0 W/m2
01:11 36.6 °F 34.5 °F 29.80 in SSW 3.0 mph -999.0 mph 92 % 0.00 in 0 W/m2
01:16 36.6 °F 34.5 °F 29.80 in SSW 3.0 mph -999.0 mph 92 % 0.00 in 0 W/m2
01:21 36.6 °F 34.5 °F 29.80 in SSW 3.0 mph -999.0 mph 92 % 0.00 in 0 W/m2
01:26 36.6 °F 34.5 °F 29.80 in SW 1.0 mph -999.0 mph 92 % 0.00 in 0 W/m2
01:31 36.6 °F 34.5 °F 29.80 in SW 1.0 mph -999.0 mph 92 % 0.00 in 0 W/m2
01:36 36.6 °F 34.5 °F 29.80 in SW 1.0 mph -999.0 mph 92 % 0.00 in 0 W/m2
01:41 36.4 °F 34.3 °F 29.81 in Calm   -999.0 mph 92 % 0.00 in 0 W/m2
01:46 36.4 °F 34.3 °F 29.81 in Calm   -999.0 mph 92 % 0.00 in 0 W/m2
01:51 36.4 °F 34.3 °F 29.81 in Calm   -999.0 mph 92 % 0.00 in 0 W/m2
01:56 35.9 °F 33.8 °F 29.81 in Calm   -999.0 mph 92 % 0.00 in 0 W/m2
02:01 35.9 °F 33.8 °F 29.81 in Calm   -999.0 mph 92 % 0.00 in 0 W/m2
02:06 35.9 °F 33.8 °F 29.81 in Calm   -999.0 mph 92 % 0.00 in 0 W/m2
02:11 35.3 °F 33.5 °F 29.81 in Calm   -999.0 mph 93 % 0.00 in 0 W/m2
02:16 35.3 °F 33.5 °F 29.81 in Calm   -999.0 mph 93 % 0.00 in 0 W/m2
02:21 35.3 °F 33.5 °F 29.81 in Calm   -999.0 mph 93 % 0.00 in 0 W/m2
02:26 35.1 °F 33.3 °F 29.81 in Calm   -999.0 mph 93 % 0.00 in 0 W/m2
02:31 35.1 °F 33.3 °F 29.81 in Calm   -999.0 mph 93 % 0.00 in 0 W/m2
02:36 35.1 °F 33.3 °F 29.81 in Calm   -999.0 mph 93 % 0.00 in 0 W/m2
02:41 34.5 °F 32.7 °F 29.81 in Calm   -999.0 mph 93 % 0.00 in 0 W/m2
02:46 34.5 °F 32.7 °F 29.81 in Calm   -999.0 mph 93 % 0.00 in 0 W/m2
02:51 34.5 °F 32.7 °F 29.81 in Calm   -999.0 mph 93 % 0.00 in 0 W/m2
02:56 34.3 °F 32.8 °F 29.81 in WNW 1.0 mph -999.0 mph 94 % 0.00 in 0 W/m2
03:01 34.3 °F 32.8 °F 29.81 in WNW 1.0 mph -999.0 mph 94 % 0.00 in 0 W/m2
03:06 34.3 °F 32.8 °F 29.81 in WNW 1.0 mph -999.0 mph 94 % 0.00 in 0 W/m2
03:11 34.4 °F 32.9 °F 29.81 in WNW 1.0 mph -999.0 mph 94 % 0.00 in 0 W/m2
03:16 34.4 °F 32.9 °F 29.81 in WNW 1.0 mph -999.0 mph 94 % 0.00 in 0 W/m2
03:21 34.4 °F 32.9 °F 29.81 in WNW 1.0 mph -999.0 mph 94 % 0.00 in 0 W/m2
03:26 34.4 °F 33.1 °F 29.81 in WNW 2.0 mph -999.0 mph 95 % 0.00 in 0 W/m2
03:31 34.4 °F 33.1 °F 29.81 in WNW 2.0 mph -999.0 mph 95 % 0.00 in 0 W/m2
03:36 34.4 °F 33.1 °F 29.81 in WNW 2.0 mph -999.0 mph 95 % 0.00 in 0 W/m2
03:41 34.4 °F 33.1 °F 29.82 in WNW 2.0 mph -999.0 mph 95 % 0.00 in 0 W/m2
03:46 34.4 °F 33.1 °F 29.82 in WNW 2.0 mph -999.0 mph 95 % 0.00 in 0 W/m2
03:51 34.4 °F 33.1 °F 29.82 in WNW 2.0 mph -999.0 mph 95 % 0.00 in 0 W/m2
03:56 34.5 °F 33.0 °F 29.82 in West 1.0 mph -999.0 mph 94 % 0.00 in 0 W/m2
04:01 34.5 °F 33.0 °F 29.82 in West 1.0 mph -999.0 mph 94 % 0.00 in 0 W/m2
04:06 34.5 °F 33.0 °F 29.82 in West 1.0 mph -999.0 mph 94 % 0.00 in 0 W/m2
04:11 34.0 °F 32.5 °F 29.82 in Calm   -999.0 mph 94 % 0.00 in 0 W/m2
04:16 34.0 °F 32.5 °F 29.82 in Calm   -999.0 mph 94 % 0.00 in 0 W/m2
04:21 34.0 °F 32.5 °F 29.82 in Calm   -999.0 mph 94 % 0.00 in 0 W/m2
04:26 33.6 °F 32.1 °F 29.82 in Calm   -999.0 mph 94 % 0.00 in 0 W/m2
04:31 33.6 °F 32.1 °F 29.82 in Calm   -999.0 mph 94 % 0.00 in 0 W/m2
04:36 33.6 °F 32.1 °F 29.82 in Calm   -999.0 mph 94 % 0.00 in 0 W/m2
04:41 33.2 °F 31.9 °F 29.82 in West 2.0 mph -999.0 mph 95 % 0.00 in 0 W/m2
04:46 33.2 °F 31.9 °F 29.82 in West 2.0 mph -999.0 mph 95 % 0.00 in 0 W/m2
04:51 33.2 °F 31.9 °F 29.82 in West 2.0 mph -999.0 mph 95 % 0.00 in 0 W/m2
04:56 33.9 °F 32.9 °F 29.82 in WSW 5.0 mph -999.0 mph 96 % 0.00 in 0 W/m2
05:01 33.9 °F 32.9 °F 29.82 in WSW 5.0 mph -999.0 mph 96 % 0.00 in 0 W/m2
05:06 33.9 °F 32.9 °F 29.82 in WSW 5.0 mph -999.0 mph 96 % 0.00 in 0 W/m2
05:11 35.3 °F 34.0 °F 29.83 in West 3.0 mph -999.0 mph 95 % 0.00 in 0 W/m2
05:16 35.3 °F 34.0 °F 29.83 in West 3.0 mph -999.0 mph 95 % 0.00 in 0 W/m2
05:21 35.3 °F 34.0 °F 29.83 in West 3.0 mph -999.0 mph 95 % 0.00 in 0 W/m2
05:26 35.4 °F 33.8 °F 29.83 in West 2.0 mph -999.0 mph 94 % 0.00 in 0 W/m2
05:31 35.4 °F 33.8 °F 29.83 in West 2.0 mph -999.0 mph 94 % 0.00 in 0 W/m2
05:36 35.4 °F 33.8 °F 29.83 in West 2.0 mph -999.0 mph 94 % 0.00 in 0 W/m2
05:41 35.0 °F 33.4 °F 29.83 in West 3.0 mph -999.0 mph 94 % 0.00 in 0 W/m2
05:46 35.0 °F 33.4 °F 29.83 in West 3.0 mph -999.0 mph 94 % 0.00 in 0 W/m2
05:51 35.0 °F 33.4 °F 29.83 in West 3.0 mph -999.0 mph 94 % 0.00 in 0 W/m2
05:56 34.9 °F 33.3 °F 29.83 in WSW 5.0 mph -999.0 mph 94 % 0.00 in 0 W/m2
06:01 34.9 °F 33.3 °F 29.83 in WSW 5.0 mph -999.0 mph 94 % 0.00 in 0 W/m2
06:06 34.9 °F 33.3 °F 29.83 in WSW 5.0 mph -999.0 mph 94 % 0.00 in 0 W/m2
06:11 35.5 °F 33.9 °F 29.83 in WSW 6.0 mph -999.0 mph 94 % 0.00 in 0 W/m2
06:16 35.5 °F 33.9 °F 29.83 in WSW 6.0 mph -999.0 mph 94 % 0.00 in 0 W/m2
06:21 35.5 °F 33.9 °F 29.83 in WSW 6.0 mph -999.0 mph 94 % 0.00 in 0 W/m2
06:26 35.9 °F 34.1 °F 29.83 in West 6.0 mph -999.0 mph 93 % 0.00 in 0 W/m2
06:31 35.9 °F 34.1 °F 29.83 in West 6.0 mph -999.0 mph 93 % 0.00 in 0 W/m2
06:36 35.9 °F 34.1 °F 29.83 in West 6.0 mph -999.0 mph 93 % 0.00 in 0 W/m2
06:41 35.6 °F 33.5 °F 29.84 in West 1.0 mph -999.0 mph 92 % 0.00 in 0 W/m2
06:46 35.6 °F 33.5 °F 29.84 in West 1.0 mph -999.0 mph 92 % 0.00 in 0 W/m2
06:51 35.6 °F 33.5 °F 29.84 in West 1.0 mph -999.0 mph 92 % 0.00 in 0 W/m2
06:56 34.8 °F 32.7 °F 29.84 in WSW 1.0 mph -999.0 mph 92 % 0.00 in 0 W/m2
07:01 34.8 °F 32.7 °F 29.84 in WSW 1.0 mph -999.0 mph 92 % 0.00 in 0 W/m2
07:06 34.8 °F 32.7 °F 29.84 in WSW 1.0 mph -999.0 mph 92 % 0.00 in 0 W/m2
07:11 34.4 °F 32.6 °F 29.84 in NW 1.0 mph -999.0 mph 93 % 0.00 in 0 W/m2
07:16 34.4 °F 32.6 °F 29.84 in NW 1.0 mph -999.0 mph 93 % 0.00 in 0 W/m2
07:21 34.4 °F 32.6 °F 29.84 in NW 1.0 mph -999.0 mph 93 % 0.00 in 0 W/m2
07:26 33.7 °F 31.9 °F 29.84 in ESE 1.0 mph -999.0 mph 93 % 0.00 in 0 W/m2
07:31 33.7 °F 31.9 °F 29.84 in ESE 1.0 mph -999.0 mph 93 % 0.00 in 0 W/m2
07:36 33.7 °F 31.9 °F 29.84 in ESE 1.0 mph -999.0 mph 93 % 0.00 in 0 W/m2
07:41 33.1 °F 31.3 °F 29.85 in WSW 1.0 mph -999.0 mph 93 % 0.00 in 0 W/m2
07:46 33.1 °F 31.3 °F 29.85 in WSW 1.0 mph -999.0 mph 93 % 0.00 in 0 W/m2
07:51 33.1 °F 31.3 °F 29.85 in WSW 1.0 mph -999.0 mph 93 % 0.00 in 0 W/m2
07:56 33.0 °F 31.5 °F 29.85 in WSW 2.0 mph -999.0 mph 94 % 0.00 in 4 W/m2
08:01 33.0 °F 31.5 °F 29.85 in WSW 2.0 mph -999.0 mph 94 % 0.00 in 4 W/m2
08:06 33.0 °F 31.5 °F 29.85 in WSW 2.0 mph -999.0 mph 94 % 0.00 in 4 W/m2
08:11 33.3 °F 32.0 °F 29.85 in Calm   -999.0 mph 95 % 0.00 in 10 W/m2
08:16 33.3 °F 32.0 °F 29.85 in Calm   -999.0 mph 95 % 0.00 in 10 W/m2
08:21 33.3 °F 32.0 °F 29.85 in Calm   -999.0 mph 95 % 0.00 in 10 W/m2
08:26 33.4 °F 31.9 °F 29.85 in Calm   -999.0 mph 94 % 0.00 in 14 W/m2
08:31 33.4 °F 31.9 °F 29.85 in Calm   -999.0 mph 94 % 0.00 in 14 W/m2
08:36 33.4 °F 31.9 °F 29.85 in Calm   -999.0 mph 94 % 0.00 in 14 W/m2
08:41 33.5 °F 32.2 °F 29.85 in Calm   -999.0 mph 95 % 0.00 in 18 W/m2
08:46 33.5 °F 32.2 °F 29.85 in Calm   -999.0 mph 95 % 0.00 in 18 W/m2
08:51 33.5 °F 32.2 °F 29.85 in Calm   -999.0 mph 95 % 0.00 in 18 W/m2
08:56 33.7 °F 32.4 °F 29.85 in Calm   -999.0 mph 95 % 0.00 in 21 W/m2
09:01 33.7 °F 32.4 °F 29.85 in Calm   -999.0 mph 95 % 0.00 in 21 W/m2
09:06 33.7 °F 32.4 °F 29.85 in Calm   -999.0 mph 95 % 0.00 in 21 W/m2
09:11 34.1 °F 32.8 °F 29.85 in Calm   -999.0 mph 95 % 0.00 in 24 W/m2
09:16 34.1 °F 32.8 °F 29.85 in Calm   -999.0 mph 95 % 0.00 in 24 W/m2
09:21 34.1 °F 32.8 °F 29.85 in Calm   -999.0 mph 95 % 0.00 in 24 W/m2
09:26 34.6 °F 33.6 °F 29.85 in SE 1.0 mph -999.0 mph 96 % 0.00 in 60 W/m2
09:31 34.6 °F 33.6 °F 29.85 in SE 1.0 mph -999.0 mph 96 % 0.00 in 60 W/m2
09:36 34.6 °F 33.6 °F 29.85 in SE 1.0 mph -999.0 mph 96 % 0.00 in 60 W/m2
09:41 35.9 °F 34.9 °F 29.85 in South 1.0 mph -999.0 mph 96 % 0.00 in 196 W/m2
09:46 35.9 °F 34.9 °F 29.85 in South 1.0 mph -999.0 mph 96 % 0.00 in 196 W/m2
09:51 35.9 °F 34.9 °F 29.85 in South 1.0 mph -999.0 mph 96 % 0.00 in 196 W/m2
09:56 37.9 °F 35.8 °F 29.85 in South 2.0 mph -999.0 mph 92 % 0.00 in 222 W/m2
10:01 37.9 °F 35.8 °F 29.85 in South 2.0 mph -999.0 mph 92 % 0.00 in 222 W/m2
10:06 37.9 °F 35.8 °F 29.85 in South 2.0 mph -999.0 mph 92 % 0.00 in 222 W/m2
10:11 39.0 °F 36.0 °F 29.86 in SE 3.0 mph -999.0 mph 89 % 0.00 in 244 W/m2
10:16 39.0 °F 36.0 °F 29.86 in SE 3.0 mph -999.0 mph 89 % 0.00 in 244 W/m2
10:21 39.0 °F 36.0 °F 29.86 in SE 3.0 mph -999.0 mph 89 % 0.00 in 244 W/m2
10:26 40.1 °F 36.5 °F 29.86 in South 1.0 mph -999.0 mph 87 % 0.00 in 265 W/m2
10:31 40.1 °F 36.5 °F 29.86 in South 1.0 mph -999.0 mph 87 % 0.00 in 265 W/m2
10:36 40.1 °F 36.5 °F 29.86 in South 1.0 mph -999.0 mph 87 % 0.00 in 265 W/m2
10:41 40.9 °F 36.7 °F 29.86 in South 2.0 mph -999.0 mph 85 % 0.00 in 286 W/m2
10:46 40.9 °F 36.7 °F 29.86 in South 2.0 mph -999.0 mph 85 % 0.00 in 286 W/m2
10:51 40.9 °F 36.7 °F 29.86 in South 2.0 mph -999.0 mph 85 % 0.00 in 286 W/m2
10:56 41.6 °F 36.8 °F 29.85 in SSE 4.0 mph -999.0 mph 83 % 0.00 in 303 W/m2
11:01 41.6 °F 36.8 °F 29.85 in SSE 4.0 mph -999.0 mph 83 % 0.00 in 303 W/m2
11:06 41.6 °F 36.8 °F 29.85 in SSE 4.0 mph -999.0 mph 83 % 0.00 in 303 W/m2
11:11 41.9 °F 37.1 °F 29.85 in SSW 7.0 mph -999.0 mph 83 % 0.00 in 292 W/m2
11:16 41.9 °F 37.1 °F 29.85 in SSW 7.0 mph -999.0 mph 83 % 0.00 in 292 W/m2
11:21 41.9 °F 37.1 °F 29.85 in SSW 7.0 mph -999.0 mph 83 % 0.00 in 292 W/m2
11:26 42.0 °F 37.2 °F 29.85 in SW 4.0 mph -999.0 mph 83 % 0.00 in 265 W/m2
11:31 42.0 °F 37.2 °F 29.85 in SW 4.0 mph -999.0 mph 83 % 0.00 in 265 W/m2
11:36 42.0 °F 37.2 °F 29.85 in SW 4.0 mph -999.0 mph 83 % 0.00 in 265 W/m2
11:41 42.3 °F 37.2 °F 29.85 in SW 7.0 mph -999.0 mph 82 % 0.00 in 193 W/m2
11:46 42.3 °F 37.2 °F 29.85 in SW 7.0 mph -999.0 mph 82 % 0.00 in 193 W/m2
11:51 42.3 °F 37.2 °F 29.85 in SW 7.0 mph -999.0 mph 82 % 0.00 in 193 W/m2
11:56 41.9 °F 37.1 °F 29.85 in SSW 7.0 mph -999.0 mph 83 % 0.00 in 199 W/m2
12:01 41.9 °F 37.1 °F 29.85 in SSW 7.0 mph -999.0 mph 83 % 0.00 in 199 W/m2
12:06 41.9 °F 37.1 °F 29.85 in SSW 7.0 mph -999.0 mph 83 % 0.00 in 199 W/m2
12:11 42.5 °F 37.1 °F 29.84 in SSW 5.0 mph -999.0 mph 81 % 0.00 in 243 W/m2
12:16 42.5 °F 37.1 °F 29.84 in SSW 5.0 mph -999.0 mph 81 % 0.00 in 243 W/m2
12:21 42.5 °F 37.1 °F 29.84 in SSW 5.0 mph -999.0 mph 81 % 0.00 in 243 W/m2
12:26 42.7 °F 37.6 °F 29.84 in SSW 6.0 mph -999.0 mph 82 % 0.00 in 176 W/m2
12:31 42.7 °F 37.6 °F 29.84 in SSW 6.0 mph -999.0 mph 82 % 0.00 in 176 W/m2
12:36 42.7 °F 37.6 °F 29.84 in SSW 6.0 mph -999.0 mph 82 % 0.00 in 176 W/m2
12:41 42.3 °F 37.2 °F 29.83 in SSW 5.0 mph -999.0 mph 82 % 0.00 in 164 W/m2
12:46 42.3 °F 37.2 °F 29.83 in SSW 5.0 mph -999.0 mph 82 % 0.00 in 164 W/m2
12:51 42.3 °F 37.2 °F 29.83 in SSW 5.0 mph -999.0 mph 82 % 0.00 in 164 W/m2
12:56 42.4 °F 37.6 °F 29.82 in South 3.0 mph -999.0 mph 83 % 0.00 in 175 W/m2
13:01 42.4 °F 37.6 °F 29.82 in South 3.0 mph -999.0 mph 83 % 0.00 in 175 W/m2
13:06 42.4 °F 37.6 °F 29.82 in South 3.0 mph -999.0 mph 83 % 0.00 in 175 W/m2
13:11 42.3 °F 37.8 °F 29.81 in SE 3.0 mph -999.0 mph 84 % 0.00 in 103 W/m2
13:16 42.3 °F 37.8 °F 29.81 in SE 3.0 mph -999.0 mph 84 % 0.00 in 103 W/m2
13:21 42.3 °F 37.8 °F 29.81 in SE 3.0 mph -999.0 mph 84 % 0.00 in 103 W/m2
13:26 41.7 °F 37.5 °F 29.81 in SSE 5.0 mph -999.0 mph 85 % 0.00 in 107 W/m2
13:31 41.7 °F 37.5 °F 29.81 in SSE 5.0 mph -999.0 mph 85 % 0.00 in 107 W/m2
13:36 41.7 °F 37.5 °F 29.81 in SSE 5.0 mph -999.0 mph 85 % 0.00 in 107 W/m2
13:41 41.1 °F 37.5 °F 29.81 in SE 5.0 mph -999.0 mph 87 % 0.00 in 114 W/m2
13:46 41.1 °F 37.5 °F 29.81 in SE 5.0 mph -999.0 mph 87 % 0.00 in 114 W/m2
13:51 41.1 °F 37.5 °F 29.81 in SE 5.0 mph -999.0 mph 87 % 0.00 in 114 W/m2
13:56 40.4 °F 37.1 °F 29.80 in SE 3.0 mph -999.0 mph 88 % 0.00 in 118 W/m2
14:01 40.4 °F 37.1 °F 29.80 in SE 3.0 mph -999.0 mph 88 % 0.00 in 118 W/m2
14:06 40.4 °F 37.1 °F 29.80 in SE 3.0 mph -999.0 mph 88 % 0.00 in 118 W/m2
14:11 39.9 °F 36.9 °F 29.80 in SSE 4.0 mph -999.0 mph 89 % 0.00 in 81 W/m2
14:16 39.9 °F 36.9 °F 29.80 in SSE 4.0 mph -999.0 mph 89 % 0.00 in 81 W/m2
14:21 39.9 °F 36.9 °F 29.80 in SSE 4.0 mph -999.0 mph 89 % 0.00 in 81 W/m2
14:26 39.7 °F 37.0 °F 29.80 in SSE 4.0 mph -999.0 mph 90 % 0.00 in 98 W/m2
14:31 39.7 °F 37.0 °F 29.80 in SSE 4.0 mph -999.0 mph 90 % 0.00 in 98 W/m2
14:36 39.7 °F 37.0 °F 29.80 in SSE 4.0 mph -999.0 mph 90 % 0.00 in 98 W/m2
14:41 39.6 °F 37.2 °F 29.80 in SE 4.0 mph -999.0 mph 91 % 0.00 in 122 W/m2
14:46 39.6 °F 37.2 °F 29.80 in SE 4.0 mph -999.0 mph 91 % 0.00 in 122 W/m2
14:51 39.6 °F 37.2 °F 29.80 in SE 4.0 mph -999.0 mph 91 % 0.00 in 122 W/m2
14:56 39.6 °F 37.2 °F 29.80 in SE 6.0 mph -999.0 mph 91 % 0.00 in 110 W/m2
15:01 39.6 °F 37.2 °F 29.80 in SE 6.0 mph -999.0 mph 91 % 0.00 in 110 W/m2
15:06 39.6 °F 37.2 °F 29.80 in SE 6.0 mph -999.0 mph 91 % 0.00 in 110 W/m2
15:11 39.6 °F 37.2 °F 29.80 in SE 5.0 mph -999.0 mph 91 % 0.00 in 64 W/m2
15:16 39.6 °F 37.2 °F 29.80 in SE 5.0 mph -999.0 mph 91 % 0.00 in 64 W/m2
15:21 39.6 °F 37.2 °F 29.80 in SE 5.0 mph -999.0 mph 91 % 0.00 in 64 W/m2
15:26 39.8 °F 37.7 °F 29.79 in SE 6.0 mph -999.0 mph 92 % 0.00 in 32 W/m2
15:31 39.8 °F 37.7 °F 29.79 in SE 6.0 mph -999.0 mph 92 % 0.00 in 32 W/m2
15:36 39.8 °F 37.7 °F 29.79 in SE 6.0 mph -999.0 mph 92 % 0.00 in 32 W/m2
15:41 39.9 °F 38.0 °F 29.80 in SE 7.0 mph -999.0 mph 93 % 0.00 in 19 W/m2
15:46 39.9 °F 38.0 °F 29.80 in SE 7.0 mph -999.0 mph 93 % 0.00 in 19 W/m2
15:51 39.9 °F 38.0 °F 29.80 in SE 7.0 mph -999.0 mph 93 % 0.00 in 19 W/m2
15:56 40.0 °F 38.1 °F 29.79 in SE 5.0 mph -999.0 mph 93 % 0.00 in 10 W/m2
16:01 40.0 °F 38.1 °F 29.79 in SE 5.0 mph -999.0 mph 93 % 0.00 in 10 W/m2
16:06 40.0 °F 38.1 °F 29.79 in SE 5.0 mph -999.0 mph 93 % 0.00 in 10 W/m2
16:11 39.9 °F 38.3 °F 29.79 in SE 5.0 mph -999.0 mph 94 % 0.00 in 7 W/m2
16:16 39.9 °F 38.3 °F 29.79 in SE 5.0 mph -999.0 mph 94 % 0.00 in 7 W/m2
16:21 39.9 °F 38.3 °F 29.79 in SE 5.0 mph -999.0 mph 94 % 0.00 in 7 W/m2
16:26 39.9 °F 38.3 °F 29.79 in SE 4.0 mph -999.0 mph 94 % 0.00 in 4 W/m2
16:31 39.9 °F 38.3 °F 29.79 in SE 4.0 mph -999.0 mph 94 % 0.00 in 4 W/m2
16:36 39.9 °F 38.3 °F 29.79 in SE 4.0 mph -999.0 mph 94 % 0.00 in 4 W/m2
16:41 39.8 °F 38.2 °F 29.79 in SSE 1.0 mph -999.0 mph 94 % 0.00 in 0 W/m2
16:46 39.8 °F 38.2 °F 29.79 in SSE 1.0 mph -999.0 mph 94 % 0.00 in 0 W/m2
16:51 39.8 °F 38.2 °F 29.79 in SSE 1.0 mph -999.0 mph 94 % 0.00 in 0 W/m2
16:56 39.8 °F 38.5 °F 29.79 in SE 1.0 mph -999.0 mph 95 % 0.00 in 0 W/m2
17:01 39.8 °F 38.5 °F 29.79 in SE 1.0 mph -999.0 mph 95 % 0.00 in 0 W/m2
17:06 39.8 °F 38.5 °F 29.79 in SE 1.0 mph -999.0 mph 95 % 0.00 in 0 W/m2
17:11 39.8 °F 38.5 °F 29.79 in Calm   -999.0 mph 95 % 0.00 in 0 W/m2
17:16 39.8 °F 38.5 °F 29.79 in Calm   -999.0 mph 95 % 0.00 in 0 W/m2
17:21 39.8 °F 38.5 °F 29.79 in Calm   -999.0 mph 95 % 0.00 in 0 W/m2
17:26 39.7 °F 38.4 °F 29.79 in Calm   -999.0 mph 95 % 0.00 in 0 W/m2
17:31 39.7 °F 38.4 °F 29.79 in Calm   -999.0 mph 95 % 0.00 in 0 W/m2
17:36 39.7 °F 38.4 °F 29.79 in Calm   -999.0 mph 95 % 0.00 in 0 W/m2
17:41 39.7 °F 38.4 °F 29.78 in Calm   -999.0 mph 95 % 0.01 in 0 W/m2
17:46 39.7 °F 38.4 °F 29.78 in Calm   -999.0 mph 95 % 0.01 in 0 W/m2
17:51 39.7 °F 38.4 °F 29.78 in Calm   -999.0 mph 95 % 0.01 in 0 W/m2
17:56 39.7 °F 38.4 °F 29.78 in Calm   -999.0 mph 95 % 0.01 in 0 W/m2
18:01 39.7 °F 38.4 °F 29.78 in Calm   -999.0 mph 95 % 0.01 in 0 W/m2
18:06 39.7 °F 38.4 °F 29.78 in Calm   -999.0 mph 95 % 0.01 in 0 W/m2
18:11 39.7 °F 38.7 °F 29.78 in Calm   -999.0 mph 96 % 0.01 in 0 W/m2
18:16 39.7 °F 38.7 °F 29.78 in Calm   -999.0 mph 96 % 0.01 in 0 W/m2
18:21 39.7 °F 38.7 °F 29.78 in Calm   -999.0 mph 96 % 0.01 in 0 W/m2
18:26 39.7 °F 38.7 °F 29.78 in Calm   -999.0 mph 96 % 0.01 in 0 W/m2
18:31 39.7 °F 38.7 °F 29.78 in Calm   -999.0 mph 96 % 0.01 in 0 W/m2
18:36 39.7 °F 38.7 °F 29.78 in Calm   -999.0 mph 96 % 0.01 in 0 W/m2
18:41 39.7 °F 38.7 °F 29.77 in Calm   -999.0 mph 96 % 0.01 in 0 W/m2
18:46 39.7 °F 38.7 °F 29.77 in Calm   -999.0 mph 96 % 0.01 in 0 W/m2
18:51 39.7 °F 38.7 °F 29.77 in Calm   -999.0 mph 96 % 0.01 in 0 W/m2
18:56 39.7 °F 38.7 °F 29.76 in Calm   -999.0 mph 96 % 0.01 in 0 W/m2
19:01 39.7 °F 38.7 °F 29.76 in Calm   -999.0 mph 96 % 0.01 in 0 W/m2
19:06 39.7 °F 38.7 °F 29.76 in Calm   -999.0 mph 96 % 0.01 in 0 W/m2
19:11 39.7 °F 38.7 °F 29.76 in Calm   -999.0 mph 96 % 0.01 in 0 W/m2
19:16 39.7 °F 38.7 °F 29.76 in Calm   -999.0 mph 96 % 0.01 in 0 W/m2
19:21 39.7 °F 38.7 °F 29.76 in Calm   -999.0 mph 96 % 0.01 in 0 W/m2
19:26 39.7 °F 38.7 °F 29.76 in Calm   -999.0 mph 96 % 0.01 in 0 W/m2
19:31 39.7 °F 38.7 °F 29.76 in Calm   -999.0 mph 96 % 0.01 in 0 W/m2
19:36 39.7 °F 38.7 °F 29.76 in Calm   -999.0 mph 96 % 0.01 in 0 W/m2
19:41 39.7 °F 38.7 °F 29.76 in Calm   -999.0 mph 96 % 0.00 in 0 W/m2
19:46 39.7 °F 38.7 °F 29.76 in Calm   -999.0 mph 96 % 0.00 in 0 W/m2
19:51 39.7 °F 38.7 °F 29.76 in Calm   -999.0 mph 96 % 0.00 in 0 W/m2
19:56 39.8 °F 38.8 °F 29.76 in Calm   -999.0 mph 96 % 0.00 in 0 W/m2
20:01 39.8 °F 38.8 °F 29.76 in Calm   -999.0 mph 96 % 0.00 in 0 W/m2
20:06 39.8 °F 38.8 °F 29.76 in Calm   -999.0 mph 96 % 0.00 in 0 W/m2
20:11 39.9 °F 39.1 °F 29.75 in Calm   -999.0 mph 97 % 0.00 in 0 W/m2
20:16 39.9 °F 39.1 °F 29.75 in Calm   -999.0 mph 97 % 0.00 in 0 W/m2
20:21 39.9 °F 39.1 °F 29.75 in Calm   -999.0 mph 97 % 0.00 in 0 W/m2
20:26 39.9 °F 39.1 °F 29.75 in Calm   -999.0 mph 97 % 0.00 in 0 W/m2
20:31 39.9 °F 39.1 °F 29.75 in Calm   -999.0 mph 97 % 0.00 in 0 W/m2
20:36 39.9 °F 39.1 °F 29.75 in Calm   -999.0 mph 97 % 0.00 in 0 W/m2
20:41 39.9 °F 39.1 °F 29.75 in Calm   -999.0 mph 97 % 0.00 in 0 W/m2
20:46 39.9 °F 39.1 °F 29.75 in Calm   -999.0 mph 97 % 0.00 in 0 W/m2
20:51 39.9 °F 39.1 °F 29.75 in Calm   -999.0 mph 97 % 0.00 in 0 W/m2
20:56 39.9 °F 39.1 °F 29.75 in Calm   -999.0 mph 97 % 0.00 in 0 W/m2
21:01 39.9 °F 39.1 °F 29.75 in Calm   -999.0 mph 97 % 0.00 in 0 W/m2
21:06 39.9 °F 39.1 °F 29.75 in Calm   -999.0 mph 97 % 0.00 in 0 W/m2
21:11 39.9 °F 39.1 °F 29.75 in Calm   -999.0 mph 97 % 0.00 in 0 W/m2
21:16 39.9 °F 39.1 °F 29.75 in Calm   -999.0 mph 97 % 0.00 in 0 W/m2
21:21 39.9 °F 39.1 °F 29.75 in Calm   -999.0 mph 97 % 0.00 in 0 W/m2
21:26 40.0 °F 39.2 °F 29.75 in Calm   -999.0 mph 97 % 0.00 in 0 W/m2
21:31 40.0 °F 39.2 °F 29.75 in Calm   -999.0 mph 97 % 0.00 in 0 W/m2
21:36 40.0 °F 39.2 °F 29.75 in Calm   -999.0 mph 97 % 0.00 in 0 W/m2
21:41 39.9 °F 39.1 °F 29.74 in Calm   -999.0 mph 97 % 0.00 in 0 W/m2
21:46 39.9 °F 39.1 °F 29.74 in Calm   -999.0 mph 97 % 0.00 in 0 W/m2
21:51 39.9 °F 39.1 °F 29.74 in Calm   -999.0 mph 97 % 0.00 in 0 W/m2
21:56 39.8 °F 39.0 °F 29.74 in Calm   -999.0 mph 97 % 0.00 in 0 W/m2
22:01 39.8 °F 39.0 °F 29.74 in Calm   -999.0 mph 97 % 0.00 in 0 W/m2
22:06 39.8 °F 39.0 °F 29.74 in Calm   -999.0 mph 97 % 0.00 in 0 W/m2
22:11 39.8 °F 39.0 °F 29.74 in Calm   -999.0 mph 97 % 0.00 in 0 W/m2
22:16 39.8 °F 39.0 °F 29.74 in Calm   -999.0 mph 97 % 0.00 in 0 W/m2
22:21 39.8 °F 39.0 °F 29.74 in Calm   -999.0 mph 97 % 0.00 in 0 W/m2
22:26 39.9 °F 39.1 °F 29.74 in NNW 1.0 mph -999.0 mph 97 % 0.00 in 0 W/m2
22:31 39.9 °F 39.1 °F 29.74 in NNW 1.0 mph -999.0 mph 97 % 0.00 in 0 W/m2
22:36 39.9 °F 39.1 °F 29.74 in NNW 1.0 mph -999.0 mph 97 % 0.00 in 0 W/m2
22:41 39.8 °F 39.0 °F 29.75 in NNW 3.0 mph -999.0 mph 97 % 0.00 in 0 W/m2
22:46 39.8 °F 39.0 °F 29.75 in NNW 3.0 mph -999.0 mph 97 % 0.00 in 0 W/m2
22:51 39.8 °F 39.0 °F 29.75 in NNW 3.0 mph -999.0 mph 97 % 0.00 in 0 W/m2
22:56 39.8 °F 39.0 °F 29.76 in NW 3.0 mph -999.0 mph 97 % 0.00 in 0 W/m2
23:01 39.8 °F 39.0 °F 29.76 in NW 3.0 mph -999.0 mph 97 % 0.00 in 0 W/m2
23:06 39.8 °F 39.0 °F 29.76 in NW 3.0 mph -999.0 mph 97 % 0.00 in 0 W/m2
23:11 39.8 °F 39.0 °F 29.76 in NNW 3.0 mph -999.0 mph 97 % 0.00 in 0 W/m2
23:16 39.8 °F 39.0 °F 29.76 in NNW 3.0 mph -999.0 mph 97 % 0.00 in 0 W/m2
23:21 39.8 °F 39.0 °F 29.76 in NNW 3.0 mph -999.0 mph 97 % 0.00 in 0 W/m2
23:26 39.8 °F 39.0 °F 29.76 in NW 2.0 mph -999.0 mph 97 % 0.01 in 0 W/m2
23:31 39.8 °F 39.0 °F 29.76 in NW 2.0 mph -999.0 mph 97 % 0.01 in 0 W/m2
23:36 39.8 °F 39.0 °F 29.76 in NW 2.0 mph -999.0 mph 97 % 0.01 in 0 W/m2
23:41 39.9 °F 39.4 °F 29.76 in NNW 2.0 mph -999.0 mph 98 % 0.01 in 0 W/m2
23:46 39.9 °F 39.4 °F 29.76 in NNW 2.0 mph -999.0 mph 98 % 0.01 in 0 W/m2
23:51 39.9 °F 39.4 °F 29.76 in NNW 2.0 mph -999.0 mph 98 % 0.01 in 0 W/m2
23:56 39.9 °F 39.1 °F 29.76 in NNW 2.0 mph -999.0 mph 97 % 0.01 in 0 W/m2
Delerius-Weather
Compliments of Weather Underground - 2.25 mb

Data updates at regular intervals.